Dutch John, Utah
Current Conditions -  °F | °C
As of 8:53 PM on Tuesday 25 Nov 2014 (Local Time) from KVEL Reporting Station
Clear Clear  
Wind Chill: 30°   Ceiling: Unl
Heat Index: 30°   Visibility: 10mi
Dew Point: 20°   Wind: 3mph
Humidity: 66%   Direction: 330°NNW
Pressure: 30.18"   Gusts: NA
Location:  40.93°N, 109.39°W
Report Text: KVEL 260353Z AUTO 33003KT 10SM CLR M01/M07 A3018 RMK AO2 SLP246 T10111067
Loading
Personal Weather Stations






























Interactive Weather Map New forecast layout! Learn more

10-Day Weather Forecast

Advertisements
Track Severe Weather on mobile